My Meet Scores
Margaret Ryan, Aspire Gymnastics Academy - MyMeetScores.com
Top100 | Top Teams | Upcoming Meets | Completed Meets | Latest | Add Scores | Help| Support | Bookmark and Share

Margaret Ryan, Aspire Gymnastics Academy
Personal Bests
LevelVault BarsBeamFloorAA
48.9258.550 9.5259.00035.850
59.6509.325 8.9509.27537.000
79.4009.375 9.0759.65036.725
Meet Scores
Date Meet Team Session Level Division Vault Bars Beam Floor AA
2020-02-21 Great Western Invitational - Women's Aspire Gymnastics Academy 03 7 Cowgirl 9.400 2 9.375 8 8.850 13 9.100 12 36.725 9
2020-01-24 Uga Invitational Aspire Gymnastics Academy 1A 7 Sr A 9.000 7T 9.050 6T 8.950 10T 9.650 5 36.650 7T
2020-01-17 2020 Bravo Classic Aspire Gymnastics Academy 4B 7 Jr 8.900 8 9.125 9 7.950 15 9.200 8 35.175 12
2020-01-03 2020 California Grand Invitational Aspire Gymnastics Academy L06 7 Junior B 8.800 7 9.100 5 9.075 5 9.250 3T 36.225 4
2019-12-20 Aspire Classic - 2019 Aspire Gymnastics Academy 2B 7 Older 9.100 6 8.950 16 8.300 22 9.425 8T 35.775 16T
2019-03-22 Illinois Gymnastics State Championships Aspire Gymnastics Academy 3 5 SR A 9.650 3 9.325 6 8.750 22 9.275 12 37.000 8
2019-03-08 Lucky Invite Aspire Gymnastics Academy A07 5 Sr 9.450 2 8.975 8 8.725 8T 9.025 6 36.175 8
2019-02-23 Kinetic Classic 2019 Aspire Gymnastics Academy 1 5 Middle 8.900 1T 8.450 10 8.425 14T 8.550 10T 34.325 5T
2019-02-15 Big ClassicBIG CLASSIC Aspire Gymnastics Academy 5B 5 Child D 9.275 2 8.900 6T 8.350 12T 8.650 8 35.175 8
2019-01-25 UGA Invitational Aspire Gymnastics Academy B11 5 Jr B 9.350 1T 9.000 5 8.050 13 9.000 4 35.400 7
2019-01-18 2019 Bravo Classic Aspire Gymnastics Academy 2A 5 Jr 9.125 4 8.875 13 8.950 16T 9.075 13 36.025 10
2018-12-14 2018 Aspire Classic Aspire Gymnastics Academy 8A 5 Middle 9.350 5T 8.725 11T 8.525 20T 9.000 6 35.600 11
2018-12-07 St. Nick Invite 2018 Aspire Gymnastics Academy 1 5 SrA 9.400 1 8.475 9 8.275 15 8.850 5 35.000 6
2018-11-17 Paul Hamm Thanksgiving Class WOMENS Aspire Gymnastics Academy 5 5 Older 9.175 4 8.100 10 8.050 12 8.900 8T 34.225 8
2018-03-08 Level 4 & 5 State Aspire Gymnastics Academy All 4 Jr C 8.925 9 8.400 19T 9.525 4 9.000 13 35.850 11
2018-02-16 Big Classic Aspire Gymnastics Academy 2B 4 Child C 8.750 4 8.550 12 9.050 11 8.800 11 35.150 11
2018-01-26 2018 UGA Classic Aspire Gymnastics Academy B2 4 Sr A 8.350 8 8.350 11 9.325 7 8.700 12T 34.725 8
2018-01-19 2018 Bravo Classic Aspire Gymnastics Academy 11B 4 Sr 8.225 10 8.000 19 8.950 16 8.775 16T 33.950 17
2017-12-15 2017 Aspire Classic Aspire Gymnastics Academy 3 4 Sr A 8.700 11 7.850 21 8.750 16T 8.600 16T 33.900 18
2017-12-08 St. Nick Invite Aspire Gymnastics Academy 7A 4 JrB 8.700 13T 7.850 17 9.075 11 8.850 11 34.475 14
2017-11-16 Paul Hamm Thanksgiving Classic - Women Aspire Gymnastics Academy 7 4 Middle 8.350 25 8.200 25 8.650 27 7.900 29 33.100 27
Get your scores on
a t-shirt, pin, or hoodie

www.lazysuits.com